Time;durP1;ratioP1;P1;durP2;ratioP2;P2;SDS_P1;SDS_P2;PMS_P1;PMS_P2;Temp;Humidity;BMP_temperature;BMP_pressure;BME280_temperature;BME280_humidity;BME280_pressure;Samples;Min_cycle;Max_cycle;Signal;HPM_P1;HPM_P2
2023/05/25 16:18:44;;;;;;;12.05;3.22;;;;;;;;;;6140128;23;20024;-64
2023/05/25 16:21:18;;;;;;;8.90;3.17;;;;;;;;;;6143576;23;20112;-62
2023/05/25 16:23:46;;;;;;;10.15;3.50;;;;;;;;;;6144412;23;20033;-55
2023/05/25 16:26:13;;;;;;;20.20;3.63;;;;;;;;;;6145391;23;20528;-55
2023/05/25 16:28:47;;;;;;;13.43;3.45;;;;;;;;;;6139786;23;20025;-57
2023/05/25 16:31:15;;;;;;;12.38;3.40;;;;;;;;;;6140784;23;20048;-56
2023/05/25 16:33:49;;;;;;;10.25;3.38;;;;;;;;;;6143502;23;20021;-63
2023/05/25 16:36:16;;;;;;;8.23;3.00;;;;;;;;;;6141246;23;20022;-63
2023/05/25 16:38:44;;;;;;;8.52;3.17;;;;;;;;;;6142678;23;20025;-62
2023/05/25 16:41:18;;;;;;;10.65;3.58;;;;;;;;;;6143110;23;20025;-62
2023/05/25 16:43:45;;;;;;;;;;;;;;;;;;6144831;23;20025;-62
2023/05/25 16:46:20;;;;;;;11.93;4.07;;;;;;;;;;6143063;23;19927;-62
2023/05/25 16:48:47;;;;;;;10.27;3.00;;;;;;;;;;6141373;23;20108;-62
2023/05/25 16:51:20;;;;;;;13.70;3.90;;;;;;;;;;6140068;23;20021;-63
2023/05/25 16:53:55;;;;;;;13.48;3.75;;;;;;;;;;6144576;23;20029;-55
2023/05/25 16:56:23;;;;;;;11.50;3.70;;;;;;;;;;6141523;23;20393;-54
2023/05/25 16:58:57;;;;;;;14.65;3.63;;;;;;;;;;6139300;23;20556;-54
2023/05/25 17:01:24;;;;;;;16.33;4.25;;;;;;;;;;6135037;23;20409;-55
2023/05/25 17:03:52;;;;;;;13.63;3.65;;;;;;;;;;6135320;23;20393;-55
2023/05/25 17:06:26;;;;;;;12.35;3.78;;;;;;;;;;6118211;23;20655;-57
2023/05/25 17:08:54;;;;;;;17.20;4.22;;;;;;;;;;6141037;23;20488;-56
2023/05/25 17:11:25;;;;;;;14.27;4.07;;;;;;;;;;6138599;23;20409;-57
2023/05/25 17:13:59;;;;;;;16.87;3.60;;;;;;;;;;6138560;23;20029;-57
2023/05/25 17:16:26;;;;;;;19.95;4.10;;;;;;;;;;6140025;23;20022;-57
2023/05/25 17:19:06;;;;;;;18.17;4.60;;;;;;;;;;6133855;23;20540;-57
2023/05/25 17:21:33;;;;;;;11.98;3.95;;;;;;;;;;6141539;23;20033;-57
2023/05/25 17:24:09;;;;;;;23.02;4.82;;;;;;;;;;6141369;23;20030;-57
2023/05/25 17:26:36;;;;;;;14.52;4.32;;;;;;;;;;6140644;23;20033;-57
2023/05/25 17:29:04;;;;;;;17.90;3.95;;;;;;;;;;6140881;23;20030;-57
2023/05/25 17:31:38;;;;;;;16.42;4.07;;;;;;;;;;6140864;23;20026;-52
2023/05/25 17:34:06;;;;;;;21.88;4.75;;;;;;;;;;6138819;23;20104;-51
2023/05/25 17:36:41;;;;;;;17.60;5.18;;;;;;;;;;6141184;23;20388;-53
2023/05/25 17:39:08;;;;;;;19.85;4.85;;;;;;;;;;6141646;23;20028;-54
2023/05/25 17:41:35;;;;;;;19.67;4.90;;;;;;;;;;6141136;23;20033;-52
2023/05/25 17:44:09;;;;;;;18.65;4.68;;;;;;;;;;6142024;23;20096;-55
2023/05/25 17:46:36;;;;;;;22.55;5.18;;;;;;;;;;6141771;23;20440;-53
2023/05/25 17:49:10;;;;;;;22.08;5.47;;;;;;;;;;6135063;23;20099;-54
2023/05/25 17:51:37;;;;;;;25.40;4.80;;;;;;;;;;6141674;23;20766;-55
2023/05/25 17:54:04;;;;;;;22.23;5.30;;;;;;;;;;6139269;23;20030;-52
2023/05/25 17:56:39;;;;;;;28.92;5.85;;;;;;;;;;6141817;23;20328;-54
2023/05/25 17:59:06;;;;;;;;;;;;;;;;;;6141846;23;20025;-62
2023/05/25 18:01:40;;;;;;;18.23;4.85;;;;;;;;;;6141072;23;19991;-48
2023/05/25 18:04:08;;;;;;;16.50;4.65;;;;;;;;;;6138883;23;20048;-50
2023/05/25 18:06:36;;;;;;;17.73;5.38;;;;;;;;;;6143336;23;20025;-49
2023/05/25 18:09:10;;;;;;;15.63;4.63;;;;;;;;;;6139894;23;20433;-52
2023/05/25 18:11:37;;;;;;;22.38;5.35;;;;;;;;;;6141685;23;20099;-52
2023/05/25 18:14:11;;;;;;;21.70;5.03;;;;;;;;;;6142662;23;20088;-52
2023/05/25 18:16:44;;;;;;;23.67;5.20;;;;;;;;;;6143324;23;20025;-52
2023/05/25 18:19:25;;;;;;;21.77;5.47;;;;;;;;;;6140481;23;20028;-52
2023/05/25 18:21:53;;;;;;;21.77;5.55;;;;;;;;;;6143342;23;20021;-50
2023/05/25 18:24:27;;;;;;;25.00;5.30;;;;;;;;;;6140045;23;20080;-53
2023/05/25 18:26:54;;;;;;;17.92;4.68;;;;;;;;;;6143416;23;20022;-58
2023/05/25 18:29:21;;;;;;;26.80;5.20;;;;;;;;;;6140477;23;20053;-59
2023/05/25 18:31:55;;;;;;;24.67;5.13;;;;;;;;;;6143287;23;20025;-52
2023/05/25 18:34:22;;;;;;;29.67;5.57;;;;;;;;;;6139219;23;20033;-50
2023/05/25 18:36:55;;;;;;;22.77;5.13;;;;;;;;;;6143710;23;20025;-51
2023/05/25 18:39:23;;;;;;;24.88;5.22;;;;;;;;;;6142771;23;20029;-51
2023/05/25 18:41:50;;;;;;;19.08;4.78;;;;;;;;;;6142030;23;20053;-49
2023/05/25 18:44:25;;;;;;;21.05;5.47;;;;;;;;;;6143201;23;20423;-48
2023/05/25 18:46:54;;;;;;;24.15;5.18;;;;;;;;;;6143973;23;20036;-50
2023/05/25 18:49:32;;;;;;;21.38;4.93;;;;;;;;;;6142284;23;20033;-54
2023/05/25 18:52:00;;;;;;;21.50;5.40;;;;;;;;;;6143855;23;20069;-54
2023/05/25 18:54:28;;;;;;;23.30;5.72;;;;;;;;;;6141916;23;20040;-55
2023/05/25 18:57:02;;;;;;;24.90;4.95;;;;;;;;;;6141861;23;20065;-55
2023/05/25 18:59:30;;;;;;;;;;;;;;;;;;6143164;23;20462;-49
2023/05/25 19:01:57;;;;;;;27.52;5.75;;;;;;;;;;6143477;23;19924;-52
2023/05/25 19:04:31;;;;;;;22.20;5.63;;;;;;;;;;6142830;23;20411;-49
2023/05/25 19:06:58;;;;;;;30.55;5.00;;;;;;;;;;6143072;23;20021;-49
2023/05/25 19:09:25;;;;;;;21.77;5.20;;;;;;;;;;6143224;23;20060;-50
2023/05/25 19:12:00;;;;;;;21.38;4.78;;;;;;;;;;6141988;23;20555;-50
2023/05/25 19:14:27;;;;;;;25.42;5.93;;;;;;;;;;6143505;23;20056;-48
2023/05/25 19:16:54;;;;;;;24.65;5.43;;;;;;;;;;6144105;23;20077;-49
2023/05/25 19:19:34;;;;;;;27.55;6.10;;;;;;;;;;6137161;23;20029;-52
2023/05/25 19:22:01;;;;;;;28.13;5.68;;;;;;;;;;6143214;23;20040;-52
2023/05/25 19:24:36;;;;;;;26.95;5.53;;;;;;;;;;6141873;23;20033;-58
2023/05/25 19:27:08;;;;;;;27.45;5.63;;;;;;;;;;6143138;23;20029;-54
2023/05/25 19:29:35;;;;;;;25.58;5.68;;;;;;;;;;6142632;23;20040;-54
2023/05/25 19:32:09;;;;;;;29.35;5.65;;;;;;;;;;6141867;23;20245;-56
2023/05/25 19:34:36;;;;;;;23.35;5.68;;;;;;;;;;6140548;23;20033;-51
2023/05/25 19:37:04;;;;;;;25.33;5.97;;;;;;;;;;6142579;23;20025;-55
2023/05/25 19:39:38;;;;;;;22.35;5.45;;;;;;;;;;6142407;23;20064;-53
2023/05/25 19:42:05;;;;;;;32.60;5.70;;;;;;;;;;6141398;23;20025;-49
2023/05/25 19:44:39;;;;;;;31.48;6.13;;;;;;;;;;6142054;23;20033;-47
2023/05/25 19:47:07;;;;;;;26.20;5.32;;;;;;;;;;6140206;23;20029;-47
2023/05/25 19:49:34;;;;;;;23.63;5.47;;;;;;;;;;6141643;23;20105;-51
2023/05/25 19:52:08;;;;;;;29.05;5.22;;;;;;;;;;6139696;23;20025;-53
2023/05/25 19:54:35;;;;;;;27.10;5.28;;;;;;;;;;6141785;23;20021;-65
2023/05/25 19:57:02;;;;;;;31.45;5.88;;;;;;;;;;6143923;23;20366;-59
2023/05/25 19:59:37;;;;;;;28.05;5.55;;;;;;;;;;6141761;23;20088;-60
2023/05/25 20:02:04;;;;;;;22.15;5.45;;;;;;;;;;6141529;23;20032;-59
2023/05/25 20:04:39;;;;;;;22.88;5.78;;;;;;;;;;6142201;23;20328;-59
2023/05/25 20:07:07;;;;;;;27.02;5.28;;;;;;;;;;6143134;23;20029;-59
2023/05/25 20:09:37;;;;;;;25.15;5.45;;;;;;;;;;6139947;23;20522;-59
2023/05/25 20:12:12;;;;;;;31.13;6.03;;;;;;;;;;6141971;23;20022;-49
2023/05/25 20:14:39;;;;;;;25.83;5.68;;;;;;;;;;6141273;23;20497;-46
2023/05/25 20:17:13;;;;;;;20.27;5.53;;;;;;;;;;6138418;23;20025;-48
2023/05/25 20:19:46;;;;;;;33.17;6.18;;;;;;;;;;6143343;23;20064;-48
2023/05/25 20:22:27;;;;;;;26.85;5.80;;;;;;;;;;6142988;23;20414;-59
2023/05/25 20:24:57;;;;;;;25.95;5.47;;;;;;;;;;6142014;23;20033;-53
2023/05/25 20:27:31;;;;;;;23.52;5.35;;;;;;;;;;6142823;23;20077;-49
2023/05/25 20:30:05;;;;;;;29.35;6.30;;;;;;;;;;6141953;23;20119;-52
2023/05/25 20:32:32;;;;;;;;;;;;;;;;;;6129228;23;20028;-50
2023/05/25 20:35:00;;;;;;;27.33;5.45;;;;;;;;;;6139968;23;20576;-52
2023/05/25 20:37:33;;;;;;;29.00;5.25;;;;;;;;;;6142781;23;20028;-51
2023/05/25 20:40:01;;;;;;;27.38;5.72;;;;;;;;;;6142447;23;20060;-48
2023/05/25 20:42:35;;;;;;;30.80;6.55;;;;;;;;;;6143126;23;20025;-50
2023/05/25 20:45:02;;;;;;;24.63;5.15;;;;;;;;;;6142942;23;20048;-51
2023/05/25 20:47:30;;;;;;;25.52;4.97;;;;;;;;;;6138110;23;20417;-50
2023/05/25 20:50:04;;;;;;;34.53;5.95;;;;;;;;;;6143880;23;20092;-50
2023/05/25 20:52:32;;;;;;;28.08;5.20;;;;;;;;;;6145872;23;20088;-47
2023/05/25 20:54:59;;;;;;;26.13;5.47;;;;;;;;;;6143663;23;20096;-50
2023/05/25 20:57:34;;;;;;;24.27;5.68;;;;;;;;;;6146211;23;20021;-48
2023/05/25 21:00:01;;;;;;;;;;;;;;;;;;6145556;23;20076;-51
2023/05/25 21:02:28;;;;;;;24.63;5.97;;;;;;;;;;6138963;23;19939;-46
2023/05/25 21:05:03;;;;;;;30.30;5.70;;;;;;;;;;6145172;23;20037;-52
2023/05/25 21:07:30;;;;;;;32.92;6.05;;;;;;;;;;6143786;23;20021;-53
2023/05/25 21:10:01;;;;;;;26.80;5.25;;;;;;;;;;6143724;23;20076;-56
2023/05/25 21:12:35;;;;;;;29.92;5.75;;;;;;;;;;6145250;23;20025;-54
2023/05/25 21:15:02;;;;;;;27.80;5.43;;;;;;;;;;6146478;23;20084;-51
2023/05/25 21:17:36;;;;;;;25.15;5.40;;;;;;;;;;6144461;23;20560;-50
2023/05/25 21:20:09;;;;;;;28.15;6.03;;;;;;;;;;6144400;23;20508;-49
2023/05/25 21:22:44;;;;;;;80.10;10.27;;;;;;;;;;6144412;23;20029;-52
2023/05/25 21:25:12;;;;;;;34.10;5.40;;;;;;;;;;6144164;23;20033;-50
2023/05/25 21:27:39;;;;;;;30.65;5.70;;;;;;;;;;6143725;23;20029;-59
2023/05/25 21:30:13;;;;;;;34.13;5.40;;;;;;;;;;6144474;23;20111;-59
2023/05/25 21:32:40;;;;;;;;;;;;;;;;;;6144275;23;20030;-59
2023/05/25 21:35:16;;;;;;;32.60;5.20;;;;;;;;;;6145219;23;19996;-58
2023/05/25 21:37:44;;;;;;;25.02;5.32;;;;;;;;;;6143956;23;20638;-58
2023/05/25 21:40:11;;;;;;;34.70;6.55;;;;;;;;;;6143979;23;20576;-58
2023/05/25 21:42:46;;;;;;;25.95;5.38;;;;;;;;;;6144246;23;20021;-58
2023/05/25 21:45:17;;;;;;;27.58;5.05;;;;;;;;;;6145665;23;20515;-56
2023/05/25 21:47:51;;;;;;;30.40;5.53;;;;;;;;;;6144949;23;20026;-56
2023/05/25 21:50:18;;;;;;;27.25;5.75;;;;;;;;;;6146635;23;20060;-53
2023/05/25 21:52:45;;;;;;;26.60;5.20;;;;;;;;;;6145250;23;20032;-55
2023/05/25 21:55:20;;;;;;;25.67;4.93;;;;;;;;;;6145823;23;20057;-65
2023/05/25 21:57:47;;;;;;;21.75;4.85;;;;;;;;;;6146856;23;20578;-59
2023/05/25 22:00:15;;;;;;;28.60;5.45;;;;;;;;;;6146200;23;20052;-59
2023/05/25 22:02:49;;;;;;;30.45;4.45;;;;;;;;;;6147053;23;20029;-59
2023/05/25 22:05:16;;;;;;;29.42;5.57;;;;;;;;;;6146876;23;20083;-59
2023/05/25 22:07:43;;;;;;;25.55;4.78;;;;;;;;;;6144868;23;20030;-58
2023/05/25 22:10:21;;;;;;;22.98;4.65;;;;;;;;;;6145149;23;20025;-60
2023/05/25 22:12:48;;;;;;;31.23;5.00;;;;;;;;;;6147480;23;20080;-52
2023/05/25 22:15:22;;;;;;;28.67;4.80;;;;;;;;;;6147090;23;20021;-53
2023/05/25 22:17:49;;;;;;;;;;;;;;;;;;6146720;23;20025;-51
2023/05/25 22:20:23;;;;;;;21.13;4.85;;;;;;;;;;6146889;23;19916;-52
2023/05/25 22:22:58;;;;;;;22.85;4.85;;;;;;;;;;6144646;23;20031;-55
2023/05/25 22:25:25;;;;;;;22.45;5.25;;;;;;;;;;6144479;23;20029;-59
2023/05/25 22:27:52;;;;;;;18.88;4.75;;;;;;;;;;6146301;23;20061;-57
2023/05/25 22:30:26;;;;;;;18.00;4.57;;;;;;;;;;6146165;23;20025;-53
2023/05/25 22:32:53;;;;;;;27.05;5.47;;;;;;;;;;6146063;23;20063;-55
2023/05/25 22:35:27;;;;;;;29.40;5.55;;;;;;;;;;6139526;23;20582;-58
2023/05/25 22:37:54;;;;;;;28.38;5.18;;;;;;;;;;6142891;23;20033;-58
2023/05/25 22:40:28;;;;;;;26.95;5.15;;;;;;;;;;6145744;23;20084;-58
2023/05/25 22:42:55;;;;;;;26.67;4.93;;;;;;;;;;6145214;23;20029;-50
2023/05/25 22:45:22;;;;;;;16.55;4.53;;;;;;;;;;6144960;23;20449;-55
2023/05/25 22:47:56;;;;;;;20.77;3.90;;;;;;;;;;6142830;23;20196;-50
2023/05/25 22:50:23;;;;;;;18.88;4.40;;;;;;;;;;6147451;23;20030;-49
2023/05/25 22:52:58;;;;;;;15.38;4.32;;;;;;;;;;6140847;23;20029;-48
2023/05/25 22:55:25;;;;;;;23.80;5.30;;;;;;;;;;6141229;23;20031;-48
2023/05/25 22:57:59;;;;;;;27.38;4.20;;;;;;;;;;6145271;23;20026;-52
2023/05/25 23:00:26;;;;;;;24.75;4.78;;;;;;;;;;6143991;23;20025;-56
2023/05/25 23:03:00;;;;;;;23.63;5.05;;;;;;;;;;6142470;23;20432;-55
2023/05/25 23:05:34;;;;;;;22.15;4.10;;;;;;;;;;6145336;23;20480;-52
2023/05/25 23:08:02;;;;;;;22.63;4.68;;;;;;;;;;6143993;23;20481;-57
2023/05/25 23:10:29;;;;;;;;;;;;;;;;;;6141999;23;20022;-67
2023/05/25 23:13:03;;;;;;;21.15;4.10;;;;;;;;;;6143112;23;19983;-58
2023/05/25 23:15:38;;;;;;;21.95;4.20;;;;;;;;;;6145909;23;20025;-57
2023/05/25 23:18:25;;;;;;;20.20;4.93;;;;;;;;;;6143177;23;20104;-60
2023/05/25 23:20:59;;;;;;;26.38;5.00;;;;;;;;;;6143436;23;20060;-54
2023/05/25 23:23:33;;;;;;;20.92;4.43;;;;;;;;;;6139171;23;20282;-58
2023/05/25 23:26:00;;;;;;;22.67;4.45;;;;;;;;;;6143369;23;20484;-58
2023/05/25 23:28:27;;;;;;;23.63;4.22;;;;;;;;;;6140778;23;20081;-60
2023/05/25 23:31:01;;;;;;;20.63;4.30;;;;;;;;;;6143474;23;20043;-53
2023/05/25 23:33:28;;;;;;;16.95;4.45;;;;;;;;;;6142151;23;20080;-53
2023/05/25 23:36:02;;;;;;;20.00;4.28;;;;;;;;;;6144222;23;20096;-57
2023/05/25 23:38:29;;;;;;;16.27;4.32;;;;;;;;;;6143175;23;20017;-55
2023/05/25 23:41:03;;;;;;;18.30;4.68;;;;;;;;;;6144193;23;20080;-53
2023/05/25 23:43:30;;;;;;;19.38;4.15;;;;;;;;;;6142479;23;20433;-57
2023/05/25 23:45:57;;;;;;;15.40;3.67;;;;;;;;;;6144703;23;20056;-58
2023/05/25 23:48:31;;;;;;;17.42;3.83;;;;;;;;;;6144314;23;20084;-49
2023/05/25 23:50:58;;;;;;;18.27;3.70;;;;;;;;;;6143120;23;20030;-49
2023/05/25 23:53:32;;;;;;;21.77;4.40;;;;;;;;;;6140881;23;20060;-51
2023/05/25 23:55:59;;;;;;;22.13;4.00;;;;;;;;;;6142221;23;20519;-51
2023/05/25 23:58:26;;;;;;;18.38;3.85;;;;;;;;;;6142157;23;20025;-58
